createdAt,value
2023-01-06T00:02:04.881Z,17.55
2023-01-06T00:04:31.742Z,11.20
2023-01-06T00:06:58.549Z,17.15
2023-01-06T00:09:25.334Z,10.90
2023-01-06T00:11:51.795Z,11.07
2023-01-06T00:14:18.326Z,11.52
2023-01-06T00:16:44.823Z,10.60
2023-01-06T00:19:11.322Z,11.73
2023-01-06T00:21:37.780Z,11.65
2023-01-06T00:24:04.266Z,12.80
2023-01-06T00:26:30.718Z,9.93
2023-01-06T00:28:57.392Z,8.68
2023-01-06T00:31:23.949Z,9.70
2023-01-06T00:33:50.511Z,7.80
2023-01-06T00:36:17.018Z,6.55
2023-01-06T00:38:43.536Z,8.70
2023-01-06T00:41:30.772Z,7.68
2023-01-06T00:43:57.599Z,8.55
2023-01-06T00:46:26.767Z,8.48
2023-01-06T00:49:04.638Z,7.65
2023-01-06T00:51:31.827Z,7.60
2023-01-06T00:54:01.161Z,7.40
2023-01-06T00:56:27.629Z,8.20
2023-01-06T00:58:54.175Z,7.88
2023-01-06T01:01:20.741Z,9.15
2023-01-06T01:03:47.327Z,5.47
2023-01-06T01:06:13.805Z,5.90
2023-01-06T01:08:40.273Z,7.13
2023-01-06T01:11:07.982Z,6.32
2023-01-06T01:13:34.451Z,6.25
2023-01-06T01:16:07.744Z,5.88
2023-01-06T01:18:34.416Z,5.55
2023-01-06T01:21:00.883Z,7.00
2023-01-06T01:23:27.404Z,6.40
2023-01-06T01:25:57.017Z,5.07
2023-01-06T01:28:23.557Z,5.78
2023-01-06T01:30:50.085Z,4.30
2023-01-06T01:33:16.571Z,4.25
2023-01-06T01:35:43.059Z,4.85
2023-01-06T01:38:09.887Z,5.38
2023-01-06T01:40:36.404Z,4.10
2023-01-06T01:43:02.857Z,5.15
2023-01-06T01:45:29.605Z,4.72
2023-01-06T01:48:00.981Z,4.00
2023-01-06T01:50:28.850Z,4.43
2023-01-06T01:52:58.475Z,4.57
2023-01-06T01:55:25.146Z,4.03
2023-01-06T01:58:34.567Z,4.93
2023-01-06T02:01:01.033Z,4.57
2023-01-06T02:03:27.529Z,4.15
2023-01-06T02:05:55.995Z,3.65
2023-01-06T02:08:40.848Z,3.65
2023-01-06T02:11:07.478Z,3.78
2023-01-06T02:13:34.663Z,4.20
2023-01-06T02:16:22.768Z,3.00
2023-01-06T02:19:01.797Z,3.70
2023-01-06T02:22:15.196Z,3.83
2023-01-06T02:24:59.455Z,3.42
2023-01-06T02:27:47.327Z,4.15
2023-01-06T02:30:32.238Z,3.03
2023-01-06T02:33:17.172Z,3.40
2023-01-06T02:35:54.223Z,4.10
2023-01-06T02:38:39.288Z,3.13
2023-01-06T02:41:08.719Z,2.78
2023-01-06T02:43:55.347Z,3.45
2023-01-06T02:46:46.825Z,3.95
2023-01-06T02:49:26.995Z,3.60
2023-01-06T02:52:07.541Z,3.47
2023-01-06T02:54:53.927Z,2.72
2023-01-06T02:57:42.401Z,3.20
2023-01-06T03:00:16.028Z,2.28
2023-01-06T03:02:43.337Z,2.33
2023-01-06T03:05:10.879Z,3.53
2023-01-06T03:07:37.889Z,2.83
2023-01-06T03:10:04.679Z,1.67
2023-01-06T03:12:32.910Z,1.90
2023-01-06T03:14:59.447Z,2.17
2023-01-06T03:17:25.967Z,2.13
2023-01-06T03:19:52.568Z,2.17
2023-01-06T03:22:19.020Z,3.10
2023-01-06T03:24:45.474Z,1.98
2023-01-06T03:27:11.939Z,2.03
2023-01-06T03:29:38.455Z,1.42
2023-01-06T03:32:23.391Z,1.45
2023-01-06T03:35:02.283Z,2.20
2023-01-06T03:37:38.417Z,2.15
2023-01-06T03:40:34.292Z,2.08
2023-01-06T03:43:12.144Z,2.60
2023-01-06T03:46:00.456Z,1.85
2023-01-06T03:48:32.457Z,2.42
2023-01-06T03:51:25.652Z,2.38
2023-01-06T03:54:35.218Z,3.13
2023-01-06T03:57:09.493Z,1.35
2023-01-06T03:59:38.959Z,1.95
2023-01-06T04:02:05.664Z,2.70
2023-01-06T04:04:32.131Z,2.10
2023-01-06T04:06:58.593Z,1.45
2023-01-06T04:09:25.065Z,1.80
2023-01-06T04:12:20.944Z,1.58
2023-01-06T04:14:47.427Z,2.42
2023-01-06T04:17:13.911Z,1.48
2023-01-06T04:19:40.385Z,1.85
2023-01-06T04:22:07.433Z,1.63
2023-01-06T04:24:33.964Z,2.00
2023-01-06T04:27:00.480Z,0.95
2023-01-06T04:29:26.929Z,1.77
2023-01-06T04:31:53.441Z,1.50
2023-01-06T04:34:19.980Z,1.88
2023-01-06T04:36:46.496Z,1.33
2023-01-06T04:39:12.943Z,1.90
2023-01-06T04:41:39.392Z,1.50
2023-01-06T04:44:05.844Z,3.25
2023-01-06T04:46:32.334Z,2.22
2023-01-06T04:48:58.798Z,1.88
2023-01-06T04:51:25.242Z,1.52
2023-01-06T04:53:51.696Z,1.25
2023-01-06T04:56:18.184Z,1.38
2023-01-06T04:58:44.637Z,1.00
2023-01-06T05:01:11.830Z,1.33
2023-01-06T05:03:38.601Z,1.40
2023-01-06T05:06:10.212Z,1.20
2023-01-06T05:08:37.608Z,1.15
2023-01-06T05:11:10.321Z,1.40
2023-01-06T05:13:36.849Z,1.33
2023-01-06T05:16:10.451Z,1.60
2023-01-06T05:18:37.009Z,0.75
2023-01-06T05:21:03.488Z,1.15
2023-01-06T05:23:29.944Z,0.80
2023-01-06T05:25:56.402Z,0.90
2023-01-06T05:28:22.878Z,1.70
2023-01-06T05:30:49.347Z,1.55
2023-01-06T05:33:15.795Z,1.60
2023-01-06T05:35:42.257Z,1.30
2023-01-06T05:38:08.996Z,2.22
2023-01-06T05:40:35.560Z,2.22
2023-01-06T05:43:02.021Z,0.73
2023-01-06T05:45:28.498Z,0.95
2023-01-06T05:47:54.982Z,1.00
2023-01-06T05:50:21.477Z,1.48
2023-01-06T05:52:47.938Z,0.93
2023-01-06T05:55:14.379Z,1.73
2023-01-06T05:57:41.113Z,0.82
2023-01-06T06:00:08.373Z,1.17
2023-01-06T06:02:34.840Z,0.68
2023-01-06T06:05:01.317Z,1.13
2023-01-06T06:07:27.797Z,1.08
2023-01-06T06:09:54.491Z,1.00
2023-01-06T06:12:20.987Z,1.02
2023-01-06T06:14:47.504Z,0.85
2023-01-06T06:17:13.996Z,1.13
2023-01-06T06:19:40.447Z,0.77
2023-01-06T06:22:08.578Z,1.65
2023-01-06T06:24:36.930Z,0.60
2023-01-06T06:27:03.449Z,1.45
2023-01-06T06:29:29.906Z,0.63
2023-01-06T06:31:56.380Z,0.88
2023-01-06T06:34:22.869Z,0.63
2023-01-06T06:36:49.319Z,0.50
2023-01-06T06:39:15.773Z,0.50
2023-01-06T06:41:42.231Z,0.40
2023-01-06T06:44:09.305Z,0.80
2023-01-06T06:46:35.766Z,0.70
2023-01-06T06:49:02.289Z,1.35
2023-01-06T06:51:29.613Z,1.95
2023-01-06T06:53:56.077Z,0.70
2023-01-06T06:56:22.580Z,1.13
2023-01-06T06:58:49.020Z,1.70
2023-01-06T07:01:17.277Z,1.33
2023-01-06T07:03:44.254Z,0.68
2023-01-06T07:06:12.764Z,1.05
2023-01-06T07:08:39.236Z,1.13
2023-01-06T07:11:05.699Z,1.35
2023-01-06T07:13:32.148Z,0.50
2023-01-06T07:15:58.687Z,1.70
2023-01-06T07:18:26.192Z,0.52
2023-01-06T07:20:55.719Z,0.85
2023-01-06T07:23:22.591Z,0.63
2023-01-06T07:25:56.036Z,0.40
2023-01-06T07:28:22.563Z,1.80
2023-01-06T07:30:49.184Z,0.95
2023-01-06T07:33:16.050Z,1.10
2023-01-06T07:35:42.526Z,0.95
2023-01-06T07:38:09.096Z,0.88
2023-01-06T07:40:35.900Z,0.85
2023-01-06T07:43:06.024Z,1.17
2023-01-06T07:45:32.742Z,3.15
2023-01-06T07:47:59.228Z,0.80
2023-01-06T07:50:26.478Z,0.50
2023-01-06T07:52:53.035Z,1.02
2023-01-06T07:55:19.644Z,1.25
2023-01-06T07:57:46.120Z,0.85
2023-01-06T08:00:12.929Z,0.90
2023-01-06T08:02:39.542Z,1.13
2023-01-06T08:05:06.270Z,0.73
2023-01-06T08:07:32.719Z,0.85
2023-01-06T08:09:59.181Z,0.43
2023-01-06T08:12:25.658Z,0.93
2023-01-06T08:14:52.100Z,0.73
2023-01-06T08:17:18.552Z,0.60
2023-01-06T08:19:45.080Z,0.50
2023-01-06T08:22:11.679Z,0.40
2023-01-06T08:24:38.127Z,1.45
2023-01-06T08:27:04.582Z,2.88
2023-01-06T08:29:31.058Z,2.53
2023-01-06T08:32:09.980Z,0.73
2023-01-06T08:34:37.065Z,1.67
2023-01-06T08:37:03.548Z,1.30
2023-01-06T08:39:30.002Z,1.80
2023-01-06T08:41:56.489Z,1.77
2023-01-06T08:44:22.960Z,2.40
2023-01-06T08:46:49.426Z,0.70
2023-01-06T08:49:15.930Z,0.90
2023-01-06T08:51:42.424Z,2.40
2023-01-06T08:54:08.941Z,0.80
2023-01-06T08:56:35.512Z,0.95
2023-01-06T08:59:02.831Z,0.98
2023-01-06T09:01:31.004Z,4.43
2023-01-06T09:03:58.197Z,0.63
2023-01-06T09:06:24.916Z,2.25
2023-01-06T09:08:51.433Z,1.38
2023-01-06T09:11:17.995Z,1.50
2023-01-06T09:13:44.538Z,1.95
2023-01-06T09:16:11.362Z,1.00
2023-01-06T09:18:37.887Z,1.50
2023-01-06T09:21:04.736Z,1.88
2023-01-06T09:23:31.564Z,1.33
2023-01-06T09:25:58.373Z,1.38
2023-01-06T09:28:25.175Z,1.33
2023-01-06T09:30:51.714Z,4.20
2023-01-06T09:33:18.237Z,2.40
2023-01-06T09:35:45.072Z,1.27
2023-01-06T09:38:12.148Z,2.85
2023-01-06T09:40:54.987Z,2.58
2023-01-06T09:43:32.642Z,4.68
2023-01-06T09:46:01.513Z,0.73
2023-01-06T09:48:44.684Z,0.82
2023-01-06T09:51:14.660Z,0.45
2023-01-06T09:53:42.523Z,2.30
2023-01-06T09:56:16.779Z,2.72
2023-01-06T09:59:01.510Z,5.18
2023-01-06T10:01:31.013Z,1.35
2023-01-06T10:03:58.367Z,1.00
2023-01-06T10:06:30.296Z,1.38
2023-01-06T10:09:17.954Z,2.63
2023-01-06T10:11:48.285Z,3.20
2023-01-06T10:14:24.331Z,1.58
2023-01-06T10:17:00.845Z,1.90
2023-01-06T10:20:01.522Z,2.25
2023-01-06T10:22:57.196Z,7.40
2023-01-06T10:25:59.108Z,3.53
2023-01-06T10:28:29.968Z,3.10
2023-01-06T10:30:59.218Z,5.55
2023-01-06T10:33:28.095Z,4.50
2023-01-06T10:35:55.353Z,1.88
2023-01-06T10:38:42.316Z,3.83
2023-01-06T10:41:46.055Z,5.45
2023-01-06T10:44:12.552Z,7.57
2023-01-06T10:46:39.103Z,8.55
2023-01-06T10:49:08.137Z,9.68
2023-01-06T10:51:39.290Z,6.85
2023-01-06T10:54:08.720Z,7.03
2023-01-06T10:56:35.535Z,7.00
2023-01-06T10:59:06.339Z,5.32
2023-01-06T11:01:34.822Z,2.28
2023-01-06T11:04:15.369Z,3.38
2023-01-06T11:06:49.512Z,6.93
2023-01-06T11:09:42.618Z,3.65
2023-01-06T11:12:10.529Z,5.72
2023-01-06T11:14:36.986Z,6.28
2023-01-06T11:17:04.324Z,3.00
2023-01-06T11:19:38.658Z,5.20
2023-01-06T11:22:06.055Z,4.95
2023-01-06T11:24:32.522Z,3.95
2023-01-06T11:27:14.927Z,5.05
2023-01-06T11:29:41.393Z,4.78
2023-01-06T11:32:24.604Z,3.55
2023-01-06T11:34:59.929Z,1.88
2023-01-06T11:37:41.369Z,4.22
2023-01-06T11:40:26.860Z,5.03
2023-01-06T11:42:55.028Z,4.47
2023-01-06T11:45:32.556Z,2.53
2023-01-06T11:47:59.106Z,6.45
2023-01-06T11:50:25.875Z,1.52
2023-01-06T11:53:02.994Z,3.60
2023-01-06T11:55:30.568Z,2.47
2023-01-06T11:58:01.634Z,2.60
2023-01-06T12:00:42.710Z,6.93
2023-01-06T12:03:39.403Z,8.98
2023-01-06T12:06:21.887Z,3.13
2023-01-06T12:08:59.034Z,5.00
2023-01-06T12:11:50.427Z,3.25
2023-01-06T12:14:28.600Z,3.25
2023-01-06T12:17:14.500Z,8.60
2023-01-06T12:19:45.578Z,7.13
2023-01-06T12:22:46.973Z,5.22
2023-01-06T12:25:18.253Z,7.03
2023-01-06T12:27:53.505Z,4.75
2023-01-06T12:30:42.552Z,2.60
2023-01-06T12:33:32.360Z,4.55
2023-01-06T12:36:02.407Z,5.28
2023-01-06T12:38:53.605Z,5.68
2023-01-06T12:41:28.640Z,7.10
2023-01-06T12:44:03.522Z,3.30
2023-01-06T12:46:34.096Z,3.63
2023-01-06T12:49:03.691Z,7.43
2023-01-06T12:51:48.891Z,3.85
2023-01-06T12:54:19.441Z,6.07
2023-01-06T12:57:20.790Z,9.18
2023-01-06T13:00:06.557Z,3.28
2023-01-06T13:02:54.787Z,6.70
2023-01-06T13:05:39.770Z,6.78
2023-01-06T13:08:19.036Z,10.35
2023-01-06T13:11:13.251Z,3.58
2023-01-06T13:13:45.627Z,1.67
2023-01-06T13:16:42.088Z,4.72
2023-01-06T13:19:33.348Z,3.20
2023-01-06T13:22:00.116Z,5.28
2023-01-06T13:24:41.997Z,4.82
2023-01-06T13:27:33.711Z,3.30
2023-01-06T13:30:32.339Z,6.47
2023-01-06T13:33:30.580Z,2.90
2023-01-06T13:36:12.548Z,3.08
2023-01-06T13:38:55.235Z,5.93
2023-01-06T13:41:23.864Z,4.30
2023-01-06T13:43:50.596Z,2.55
2023-01-06T13:46:18.299Z,3.60
2023-01-06T13:48:53.666Z,4.70
2023-01-06T13:51:24.833Z,2.50
2023-01-06T13:53:51.340Z,2.90
2023-01-06T13:56:17.634Z,3.22
2023-01-06T13:58:46.958Z,2.72
2023-01-06T14:01:30.846Z,3.70
2023-01-06T14:04:28.985Z,2.70
2023-01-06T14:06:55.443Z,3.22
2023-01-06T14:09:21.899Z,2.55
2023-01-06T14:11:48.639Z,2.95
2023-01-06T14:14:26.990Z,1.65
2023-01-06T14:16:54.460Z,2.72
2023-01-06T14:19:26.940Z,3.08
2023-01-06T14:21:54.431Z,2.33
2023-01-06T14:24:35.983Z,1.30
2023-01-06T14:27:04.318Z,2.13
2023-01-06T14:29:40.183Z,0.85
2023-01-06T14:32:15.690Z,2.05
2023-01-06T14:34:44.112Z,1.52
2023-01-06T14:37:14.067Z,1.23
2023-01-06T14:39:41.559Z,0.93
2023-01-06T14:42:19.396Z,1.42
2023-01-06T14:44:50.494Z,1.23
2023-01-06T14:47:29.319Z,2.63
2023-01-06T14:50:06.069Z,2.90
2023-01-06T14:52:34.776Z,3.35
2023-01-06T14:55:02.091Z,2.03
2023-01-06T14:57:35.998Z,4.10
2023-01-06T15:00:16.291Z,3.72
2023-01-06T15:02:47.449Z,0.95
2023-01-06T15:05:21.184Z,3.78
2023-01-06T15:08:06.574Z,4.25
2023-01-06T15:10:38.969Z,6.90
2023-01-06T15:13:22.415Z,2.58
2023-01-06T15:16:07.991Z,8.03
2023-01-06T15:18:35.240Z,3.72
2023-01-06T15:21:01.739Z,1.27
2023-01-06T15:23:28.196Z,2.75
2023-01-06T15:25:55.414Z,3.10
2023-01-06T15:28:29.279Z,4.22
2023-01-06T15:30:55.895Z,6.80
2023-01-06T15:33:24.012Z,4.85
2023-01-06T15:35:50.482Z,1.52
2023-01-06T15:38:22.874Z,3.05
2023-01-06T15:40:49.675Z,1.42
2023-01-06T15:43:16.769Z,2.50
2023-01-06T15:45:43.281Z,1.88
2023-01-06T15:48:16.848Z,3.13
2023-01-06T15:50:43.308Z,1.17
2023-01-06T15:53:18.621Z,1.40
2023-01-06T15:55:49.088Z,1.13
2023-01-06T15:58:51.468Z,2.53
2023-01-06T16:01:19.654Z,2.08
2023-01-06T16:03:47.383Z,0.73
2023-01-06T16:06:15.401Z,2.50
2023-01-06T16:08:42.051Z,0.90
2023-01-06T16:11:37.957Z,1.65
2023-01-06T16:14:05.149Z,1.40
2023-01-06T16:16:36.184Z,2.25
2023-01-06T16:19:09.486Z,1.33
2023-01-06T16:21:35.983Z,1.17
2023-01-06T16:24:04.069Z,2.15
2023-01-06T16:26:32.016Z,3.97
2023-01-06T16:29:00.245Z,4.63
2023-01-06T16:31:31.691Z,1.98
2023-01-06T16:34:22.872Z,5.90
2023-01-06T16:36:49.901Z,10.38
2023-01-06T16:39:16.382Z,7.43
2023-01-06T16:42:37.877Z,6.15
2023-01-06T16:45:12.439Z,4.57
2023-01-06T16:47:41.968Z,3.67
2023-01-06T16:50:22.534Z,3.53
2023-01-06T16:52:54.736Z,5.63
2023-01-06T16:55:23.171Z,6.40
2023-01-06T16:57:50.186Z,3.03
2023-01-06T17:00:20.514Z,3.05
2023-01-06T17:02:47.492Z,2.72
2023-01-06T17:05:18.550Z,3.38
2023-01-06T17:07:45.024Z,3.35
2023-01-06T17:10:20.063Z,4.07
2023-01-06T17:13:17.219Z,5.32
2023-01-06T17:15:43.875Z,2.67
2023-01-06T17:18:21.826Z,3.17
2023-01-06T17:20:48.642Z,3.70
2023-01-06T17:23:15.087Z,3.42
2023-01-06T17:25:43.993Z,2.40
2023-01-06T17:28:16.081Z,3.63
2023-01-06T17:30:42.570Z,2.28
2023-01-06T17:33:11.933Z,3.53
2023-01-06T17:35:38.412Z,4.57
2023-01-06T17:38:23.489Z,3.10
2023-01-06T17:40:50.072Z,4.05
2023-01-06T17:43:37.264Z,3.45
2023-01-06T17:46:14.419Z,3.88
2023-01-06T17:48:41.180Z,2.17
2023-01-06T17:51:07.721Z,5.40
2023-01-06T17:53:52.859Z,2.60
2023-01-06T17:56:20.358Z,2.20
2023-01-06T17:58:46.845Z,5.93
2023-01-06T18:01:22.134Z,3.08
2023-01-06T18:03:48.670Z,2.58
2023-01-06T18:06:19.660Z,2.28
2023-01-06T18:08:46.776Z,2.30
2023-01-06T18:11:22.546Z,2.45
2023-01-06T18:13:50.937Z,2.45
2023-01-06T18:16:29.312Z,2.00
2023-01-06T18:19:25.850Z,1.95
2023-01-06T18:21:52.388Z,2.22
2023-01-06T18:24:34.812Z,1.77
2023-01-06T18:27:03.383Z,2.17
2023-01-06T18:29:33.011Z,1.35
2023-01-06T18:32:25.199Z,2.20
2023-01-06T18:34:56.487Z,3.13
2023-01-06T18:37:31.116Z,1.92
2023-01-06T18:40:02.760Z,3.10
2023-01-06T18:42:34.579Z,2.08
2023-01-06T18:45:16.081Z,4.55
2023-01-06T18:47:42.978Z,2.78
2023-01-06T18:50:18.315Z,1.75
2023-01-06T18:52:45.723Z,2.13
2023-01-06T18:55:23.634Z,3.78
2023-01-06T18:57:58.290Z,1.58
2023-01-06T19:00:53.968Z,1.77
2023-01-06T19:03:38.079Z,2.22
2023-01-06T19:06:16.514Z,2.47
2023-01-06T19:08:44.881Z,3.10
2023-01-06T19:11:29.612Z,3.03
2023-01-06T19:14:01.572Z,3.72
2023-01-06T19:16:35.267Z,2.83
2023-01-06T19:19:23.685Z,2.92
2023-01-06T19:21:50.638Z,3.85
2023-01-06T19:24:44.883Z,3.45
2023-01-06T19:27:30.741Z,3.10
2023-01-06T19:30:18.908Z,2.70
2023-01-06T19:32:45.428Z,3.83
2023-01-06T19:35:29.199Z,5.65
2023-01-06T19:37:59.792Z,6.28
2023-01-06T19:40:27.861Z,4.63
2023-01-06T19:43:02.831Z,4.40
2023-01-06T19:45:30.531Z,5.47
2023-01-06T19:48:00.001Z,4.97
2023-01-06T19:50:26.555Z,4.75
2023-01-06T19:52:57.949Z,3.55
2023-01-06T19:55:28.755Z,5.68
2023-01-06T19:57:56.380Z,6.38
2023-01-06T20:00:30.351Z,9.18
2023-01-06T20:05:26.157Z,9.35
2023-01-06T20:07:52.641Z,7.40
2023-01-06T20:10:20.588Z,7.97
2023-01-06T20:12:48.544Z,8.65
2023-01-06T20:15:15.384Z,7.55
2023-01-06T20:17:41.879Z,8.35
2023-01-06T20:20:08.828Z,8.43
2023-01-06T20:22:35.341Z,6.90
2023-01-06T20:25:01.797Z,6.22
2023-01-06T20:27:28.316Z,11.73
2023-01-06T20:29:54.775Z,9.52
2023-01-06T20:32:21.243Z,6.07
2023-01-06T20:34:47.699Z,6.63
2023-01-06T20:37:14.147Z,8.13
2023-01-06T20:39:40.599Z,5.35
2023-01-06T20:42:07.123Z,7.40
2023-01-06T20:44:33.596Z,5.55
2023-01-06T20:47:00.131Z,7.25
2023-01-06T20:49:26.606Z,8.95
2023-01-06T20:51:53.342Z,6.13
2023-01-06T20:54:19.809Z,5.60
2023-01-06T20:56:46.255Z,5.43
2023-01-06T20:59:12.707Z,5.47
2023-01-06T21:01:39.287Z,5.55
2023-01-06T21:04:05.806Z,7.93
2023-01-06T21:06:32.281Z,5.13
2023-01-06T21:08:58.737Z,5.63
2023-01-06T21:11:25.223Z,6.43
2023-01-06T21:13:51.710Z,7.25
2023-01-06T21:16:18.523Z,5.25
2023-01-06T21:18:45.062Z,6.22
2023-01-06T21:21:11.545Z,4.93
2023-01-06T21:23:37.990Z,5.53
2023-01-06T21:26:04.482Z,5.90
2023-01-06T21:28:30.939Z,5.75
2023-01-06T21:30:57.471Z,4.13
2023-01-06T21:33:24.157Z,4.88
2023-01-06T21:35:50.638Z,3.92
2023-01-06T21:38:17.220Z,4.78
2023-01-06T21:40:43.678Z,3.28
2023-01-06T21:43:10.695Z,3.30
2023-01-06T21:45:41.453Z,4.78
2023-01-06T21:48:08.223Z,4.30
2023-01-06T21:50:43.719Z,4.63
2023-01-06T21:53:10.511Z,5.03
2023-01-06T21:55:37.142Z,4.55
2023-01-06T21:58:03.603Z,5.50
2023-01-06T22:00:30.078Z,6.47
2023-01-06T22:02:56.572Z,4.00
2023-01-06T22:05:23.091Z,4.88
2023-01-06T22:07:50.666Z,3.60
2023-01-06T22:10:18.661Z,5.15
2023-01-06T22:12:45.487Z,7.25
2023-01-06T22:15:12.207Z,5.40
2023-01-06T22:17:38.578Z,4.35
2023-01-06T22:20:05.495Z,4.22
2023-01-06T22:22:32.547Z,3.45
2023-01-06T22:24:59.012Z,3.30
2023-01-06T22:27:25.482Z,3.60
2023-01-06T22:29:51.948Z,5.10
2023-01-06T22:32:18.399Z,5.90
2023-01-06T22:34:44.868Z,4.97
2023-01-06T22:37:11.332Z,3.70
2023-01-06T22:39:37.787Z,7.22
2023-01-06T22:42:04.317Z,4.70
2023-01-06T22:44:30.771Z,3.28
2023-01-06T22:46:57.247Z,4.80
2023-01-06T22:49:23.724Z,2.83
2023-01-06T22:51:50.249Z,3.28
2023-01-06T22:54:16.854Z,3.22
2023-01-06T22:56:43.335Z,4.00
2023-01-06T22:59:09.990Z,4.53
2023-01-06T23:01:36.563Z,2.88
2023-01-06T23:04:03.391Z,3.92
2023-01-06T23:06:29.940Z,5.25
2023-01-06T23:09:00.433Z,2.38
2023-01-06T23:11:28.525Z,6.55
2023-01-06T23:13:58.208Z,2.70
2023-01-06T23:16:26.282Z,2.97
2023-01-06T23:18:53.100Z,3.22
2023-01-06T23:21:21.875Z,2.60
2023-01-06T23:23:49.253Z,2.30
2023-01-06T23:26:17.771Z,3.00
2023-01-06T23:28:44.313Z,2.42
2023-01-06T23:31:12.753Z,5.18
2023-01-06T23:33:43.531Z,5.75
2023-01-06T23:36:10.828Z,2.88
2023-01-06T23:38:37.730Z,4.03
2023-01-06T23:41:14.859Z,3.78
2023-01-06T23:43:41.381Z,5.43
2023-01-06T23:46:09.516Z,3.15
2023-01-06T23:48:36.022Z,2.72
2023-01-06T23:51:02.721Z,2.40
2023-01-06T23:53:29.284Z,7.40
2023-01-06T23:55:57.537Z,5.28
2023-01-06T23:58:24.119Z,2.33
